Time;durP1;ratioP1;P1;durP2;ratioP2;P2;SDS_P1;SDS_P2;PMS_P1;PMS_P2;Temp;Humidity;BMP_temperature;BMP_pressure;BME280_temperature;BME280_humidity;BME280_pressure;Samples;Min_cycle;Max_cycle;Signal;HPM_P1;HPM_P2
2023/01/10 00:01:42;;;;;;;48.20;26.30;;;;;;;5.45;100.00;97058.45;106624;1254;60245;-79
2023/01/10 00:04:09;;;;;;;38.30;21.80;;;;;;;5.42;100.00;97057.02;106772;1254;59078;-78
2023/01/10 00:06:35;;;;;;;37.50;22.80;;;;;;;5.40;100.00;97062.23;106651;1254;59068;-77
2023/01/10 00:09:02;;;;;;;39.90;22.40;;;;;;;5.37;100.00;97061.58;106659;1254;60221;-78
2023/01/10 00:14:13;;;;;;;35.40;20.10;;;;;;;5.29;100.00;97064.20;106667;1254;60529;-76
2023/01/10 00:16:41;;;;;;;37.60;21.60;;;;;;;5.28;100.00;97064.69;106641;1254;61421;-79
2023/01/10 00:19:09;;;;;;;36.80;21.60;;;;;;;5.27;100.00;97064.53;106662;1254;70957;-78
2023/01/10 00:21:36;;;;;;;42.70;22.00;;;;;;;5.28;100.00;97064.38;106638;1254;72543;-79
2023/01/10 00:24:18;;;;;;;37.30;21.70;;;;;;;5.26;100.00;97070.39;106653;1254;60520;-76
2023/01/10 00:26:49;;;;;;;48.20;27.40;;;;;;;5.26;100.00;97071.02;106665;1254;60164;-76
2023/01/10 00:29:21;;;;;;;45.40;27.10;;;;;;;5.28;100.00;97074.79;106621;1254;73851;-76
2023/01/10 00:31:47;;;;;;;51.00;27.70;;;;;;;5.27;100.00;97072.70;106730;1254;70858;-79
2023/01/10 00:34:14;;;;;;;47.50;27.20;;;;;;;5.28;100.00;97073.06;106609;1254;72544;-76
2023/01/10 00:36:40;;;;;;;34.20;22.10;;;;;;;5.27;100.00;97076.30;106546;1254;59798;-78
2023/01/10 00:39:09;;;;;;;33.80;20.80;;;;;;;5.23;100.00;97076.25;106673;1254;59761;-76
2023/01/10 00:44:21;;;;;;;27.20;15.70;;;;;;;5.14;100.00;97079.89;106678;1254;71028;-76
2023/01/10 00:46:47;;;;;;;28.10;17.00;;;;;;;5.14;100.00;97088.17;106587;1254;59868;-78
2023/01/10 00:49:15;;;;;;;32.10;16.90;;;;;;;5.11;100.00;97089.89;106643;1254;61992;-76
2023/01/10 00:51:42;;;;;;;31.40;16.60;;;;;;;5.07;100.00;97091.70;106634;1254;60150;-76
2023/01/10 00:54:09;;;;;;;20.10;11.80;;;;;;;5.06;100.00;97092.66;106678;1256;73471;-78
2023/01/10 00:56:35;;;;;;;22.10;14.20;;;;;;;5.06;100.00;97096.05;106620;1254;70570;-78
2023/01/10 00:59:02;;;;;;;23.60;13.40;;;;;;;5.05;100.00;97102.59;106635;1254;61970;-76
2023/01/10 01:01:29;;;;;;;27.40;15.20;;;;;;;5.02;100.00;97103.93;106540;1254;59799;-78
2023/01/10 01:03:55;;;;;;;24.90;15.30;;;;;;;5.00;100.00;97109.67;106561;1256;60004;-76
2023/01/10 01:06:21;;;;;;;25.80;14.40;;;;;;;4.92;100.00;97107.56;106537;1256;59874;-76
2023/01/10 01:08:48;;;;;;;21.30;12.90;;;;;;;4.94;100.00;97110.73;106534;1254;61333;-76
2023/01/10 01:11:14;;;;;;;23.00;13.20;;;;;;;4.93;100.00;97114.22;106537;1254;59899;-79
2023/01/10 01:13:41;;;;;;;22.60;13.20;;;;;;;4.89;100.00;97116.20;106520;1254;59883;-76
2023/01/10 01:16:07;;;;;;;22.20;12.30;;;;;;;4.90;100.00;97115.09;106536;1254;59897;-76
2023/01/10 01:18:33;;;;;;;18.30;11.10;;;;;;;4.88;100.00;97119.38;106557;1254;61305;-78
2023/01/10 01:21:02;;;;;;;23.00;12.60;;;;;;;4.76;100.00;97127.23;106499;1254;61340;-78
2023/01/10 01:23:29;;;;;;;20.60;12.70;;;;;;;4.72;100.00;97129.10;106515;1256;72541;-78
2023/01/10 01:25:55;;;;;;;24.20;14.40;;;;;;;4.77;100.00;97129.41;106487;1256;61193;-77
2023/01/10 01:28:22;;;;;;;22.70;14.80;;;;;;;4.73;100.00;97127.38;106561;1253;61359;-78
2023/01/10 01:30:48;;;;;;;25.00;13.80;;;;;;;4.71;100.00;97128.61;106637;1253;74542;-76
2023/01/10 01:33:15;;;;;;;24.20;13.40;;;;;;;4.68;100.00;97132.34;106634;1254;60298;-78
2023/01/10 01:35:42;;;;;;;18.40;10.50;;;;;;;4.69;100.00;97137.77;106631;1254;71386;-76
2023/01/10 01:38:09;;;;;;;16.90;10.10;;;;;;;4.71;100.00;97141.02;106640;1253;61206;-78
2023/01/10 01:40:37;;;;;;;18.40;9.70;;;;;;;4.67;100.00;97143.19;106637;1254;61208;-78
2023/01/10 01:43:04;;;;;;;13.70;8.80;;;;;;;4.63;100.00;97142.15;106660;1255;74525;-79
2023/01/10 01:45:36;;;;;;;14.70;6.70;;;;;;;4.64;100.00;97138.14;106602;1254;71023;-79
2023/01/10 01:48:13;;;;;;;13.00;6.50;;;;;;;4.64;100.00;97136.42;106777;1254;72519;-76
2023/01/10 01:50:43;;;;;;;14.60;8.20;;;;;;;4.65;100.00;97135.40;106616;1255;59831;-76
2023/01/10 01:53:30;;;;;;;21.40;12.90;;;;;;;4.65;100.00;97140.93;106585;1257;60218;-76
2023/01/10 01:56:00;;;;;;;16.10;8.30;;;;;;;4.64;100.00;97142.54;106464;1260;74604;-78
2023/01/10 01:58:32;;;;;;;12.20;7.20;;;;;;;4.65;100.00;97140.45;106584;1255;69988;-76
2023/01/10 02:00:59;;;;;;;12.00;6.20;;;;;;;4.62;100.00;97141.19;106599;1252;71401;-76
2023/01/10 02:03:25;;;;;;;10.80;6.10;;;;;;;4.62;100.00;97139.05;106441;1260;62100;-78
2023/01/10 02:05:52;;;;;;;50.50;21.90;;;;;;;4.61;100.00;97140.27;106572;1257;60639;-78
2023/01/10 02:08:18;;;;;;;35.60;18.70;;;;;;;4.60;100.00;97143.15;106610;1254;61339;-78
2023/01/10 02:11:00;;;;;;;22.10;13.00;;;;;;;4.58;100.00;97142.19;106656;1254;61152;-78
2023/01/10 02:13:26;;;;;;;21.50;13.40;;;;;;;4.55;100.00;97143.69;106641;1254;72586;-76
2023/01/10 02:15:53;;;;;;;20.50;12.20;;;;;;;4.56;100.00;97145.09;106654;1256;59775;-76
2023/01/10 02:18:20;;;;;;;23.10;11.00;;;;;;;4.54;100.00;97144.92;106638;1256;59809;-76
2023/01/10 02:21:00;;;;;;;19.40;10.60;;;;;;;4.54;100.00;97147.13;106599;1254;74562;-79
2023/01/10 02:23:45;;;;;;;23.50;13.60;;;;;;;4.56;100.00;97141.39;106605;1254;69005;-79
2023/01/10 02:26:14;;;;;;;17.50;10.10;;;;;;;4.58;100.00;97139.40;106614;1254;71427;-76
2023/01/10 02:28:47;;;;;;;12.10;8.20;;;;;;;4.57;100.00;97142.23;106602;1257;61332;-78
2023/01/10 02:31:32;;;;;;;20.60;10.20;;;;;;;4.53;100.00;97146.30;106647;1255;61221;-78
2023/01/10 02:34:06;;;;;;;14.60;9.60;;;;;;;4.56;100.00;97148.95;106676;1252;73424;-77
2023/01/10 02:36:48;;;;;;;14.20;9.20;;;;;;;4.59;100.00;97151.95;106647;1255;71037;-78
2023/01/10 02:39:27;;;;;;;23.60;15.10;;;;;;;4.57;100.00;97159.80;106630;1254;71711;-76
2023/01/10 02:42:02;;;;;;;27.60;17.20;;;;;;;4.54;100.00;97159.95;106647;1254;59808;-76
2023/01/10 02:44:33;;;;;;;23.80;16.40;;;;;;;4.54;100.00;97161.92;106692;1256;61940;-76
2023/01/10 02:47:02;;;;;;;20.90;13.90;;;;;;;4.54;100.00;97165.36;106691;1254;73588;-79
2023/01/10 02:49:28;;;;;;;19.90;11.70;;;;;;;4.55;100.00;97169.39;106752;1256;70336;-78
2023/01/10 02:51:55;;;;;;;14.90;9.60;;;;;;;4.54;100.00;97170.14;106698;1254;60919;-78
2023/01/10 02:54:26;;;;;;;15.20;8.80;;;;;;;4.52;100.00;97176.13;106719;1254;61324;-78
2023/01/10 02:57:43;;;;;;;13.60;8.70;;;;;;;4.52;100.00;97176.77;106559;1257;61740;-76
2023/01/10 03:00:20;;;;;;;14.50;8.40;;;;;;;4.50;100.00;97186.36;105947;1263;73488;-76
2023/01/10 03:03:07;;;;;;;14.80;8.60;;;;;;;4.51;100.00;97189.54;106561;1254;71461;-78
2023/01/10 03:06:06;;;;;;;13.20;7.50;;;;;;;4.53;100.00;97192.84;106562;1256;70922;-79
2023/01/10 03:08:34;;;;;;;;;;;;;;;4.52;100.00;97192.33;106567;1254;61104;-78
2023/01/10 03:11:05;;;;;;;13.80;8.80;;;;;;;4.52;100.00;97193.08;106569;1256;61222;-76
2023/01/10 03:13:40;;;;;;;16.40;10.30;;;;;;;4.55;100.00;97198.16;106745;1254;74859;-78
2023/01/10 03:16:07;;;;;;;15.20;9.60;;;;;;;4.58;100.00;97204.92;106585;1256;71071;-78
2023/01/10 03:18:37;;;;;;;15.20;8.70;;;;;;;4.55;100.00;97207.55;106506;1257;72161;-78
2023/01/10 03:21:04;;;;;;;16.60;8.50;;;;;;;4.55;100.00;97211.73;106486;1260;61230;-76
2023/01/10 03:23:31;;;;;;;15.00;8.70;;;;;;;4.53;100.00;97217.45;106564;1254;60219;-78
2023/01/10 03:25:57;;;;;;;15.20;9.20;;;;;;;4.54;100.00;97219.78;106509;1255;74293;-76
2023/01/10 03:28:45;;;;;;;20.50;11.20;;;;;;;4.56;100.00;97221.18;106514;1259;59887;-78
2023/01/10 03:31:17;;;;;;;18.90;11.30;;;;;;;4.60;100.00;97224.30;106617;1256;72546;-76
2023/01/10 03:33:44;;;;;;;21.90;11.90;;;;;;;4.61;100.00;97226.73;106770;1256;62014;-79
2023/01/10 03:36:22;;;;;;;22.10;11.10;;;;;;;4.60;100.00;97235.47;106639;1256;62030;-76
2023/01/10 03:38:56;;;;;;;22.30;13.10;;;;;;;4.55;100.00;97237.88;106524;1255;75309;-76
2023/01/10 03:41:51;;;;;;;18.20;11.60;;;;;;;4.55;100.00;97241.67;106489;1255;69885;-78
2023/01/10 03:44:44;;;;;;;21.20;11.00;;;;;;;4.53;100.00;97245.04;106602;1256;71360;-76
2023/01/10 03:47:22;;;;;;;21.10;11.90;;;;;;;4.53;100.00;97245.97;106555;1257;59864;-76
2023/01/10 03:49:53;;;;;;;16.00;8.70;;;;;;;4.49;100.00;97245.59;106648;1252;60181;-78
2023/01/10 03:52:19;;;;;;;13.90;7.80;;;;;;;4.44;100.00;97250.88;106507;1257;74606;-76
2023/01/10 03:54:46;;;;;;;13.10;8.90;;;;;;;4.46;100.00;97253.54;106469;1259;70909;-76
2023/01/10 03:57:21;;;;;;;29.00;17.90;;;;;;;4.43;100.00;97257.48;106529;1257;71382;-76
2023/01/10 03:59:51;;;;;;;28.60;18.50;;;;;;;4.39;100.00;97256.27;106473;1252;61430;-76
2023/01/10 04:02:18;;;;;;;21.30;11.70;;;;;;;4.35;100.00;97258.23;106605;1255;61884;-78
2023/01/10 04:04:44;;;;;;;18.50;11.10;;;;;;;4.36;100.00;97259.14;106530;1255;73497;-76
2023/01/10 04:07:11;;;;;;;23.00;11.40;;;;;;;4.31;100.00;97258.63;106554;1256;71014;-76
2023/01/10 04:09:37;;;;;;;21.40;14.40;;;;;;;4.33;100.00;97262.40;106599;1255;60542;-76
2023/01/10 04:12:04;;;;;;;20.40;12.10;;;;;;;4.34;100.00;97265.89;106586;1254;61333;-79
2023/01/10 04:14:31;;;;;;;15.50;8.20;;;;;;;4.31;100.00;97269.80;106758;1255;61340;-79
2023/01/10 04:16:58;;;;;;;20.60;10.60;;;;;;;4.22;100.00;97270.00;106531;1255;75673;-78
2023/01/10 04:19:25;;;;;;;19.00;10.30;;;;;;;4.20;100.00;97270.41;106674;1256;69950;-78
2023/01/10 04:21:51;;;;;;;16.10;9.20;;;;;;;4.18;100.00;97274.95;106566;1254;60123;-78
2023/01/10 04:24:18;;;;;;;15.20;9.20;;;;;;;4.19;100.00;97280.16;106480;1260;61236;-76
2023/01/10 04:26:44;;;;;;;15.30;8.50;;;;;;;4.14;100.00;97284.26;106542;1253;61038;-77
2023/01/10 04:29:10;;;;;;;16.10;9.30;;;;;;;4.11;100.00;97290.67;106682;1254;60823;-76
2023/01/10 04:31:38;;;;;;;13.80;8.80;;;;;;;4.05;100.00;97296.45;106609;1257;59999;-75
2023/01/10 04:34:06;;;;;;;10.80;6.90;;;;;;;4.06;100.00;97300.05;106618;1255;71445;-78
2023/01/10 04:36:32;;;;;;;16.10;8.10;;;;;;;4.07;100.00;97304.84;106568;1257;60399;-78
2023/01/10 04:38:59;;;;;;;13.40;8.50;;;;;;;4.05;100.00;97308.79;106479;1256;59841;-76
2023/01/10 04:41:26;;;;;;;18.90;9.00;;;;;;;3.99;100.00;97313.67;106490;1256;73398;-76
2023/01/10 04:43:52;;;;;;;15.20;8.70;;;;;;;3.98;100.00;97313.11;106556;1257;60296;-76
2023/01/10 04:46:18;;;;;;;14.50;8.30;;;;;;;4.01;100.00;97317.75;106518;1257;60831;-78
2023/01/10 04:48:45;;;;;;;16.00;6.80;;;;;;;3.97;100.00;97324.05;106543;1254;60165;-77
2023/01/10 04:51:11;;;;;;;12.90;6.80;;;;;;;3.95;100.00;97330.91;106561;1254;60825;-76
2023/01/10 04:53:38;;;;;;;11.90;6.30;;;;;;;3.90;100.00;97333.73;106624;1254;61345;-76
2023/01/10 04:56:05;;;;;;;24.90;11.50;;;;;;;3.91;100.00;97337.45;106508;1253;61155;-76
2023/01/10 04:58:33;;;;;;;17.90;9.30;;;;;;;3.87;100.00;97349.27;106728;1257;72555;-76
2023/01/10 05:01:09;;;;;;;10.60;6.30;;;;;;;3.83;100.00;97365.02;106530;1257;60064;-79
2023/01/10 05:03:35;;;;;;;10.20;6.60;;;;;;;3.78;100.00;97370.39;106492;1257;59919;-78
2023/01/10 05:06:03;;;;;;;6.80;4.90;;;;;;;3.80;100.00;97374.60;106503;1254;73131;-76
2023/01/10 05:08:29;;;;;;;10.10;5.60;;;;;;;3.77;100.00;97380.42;106637;1253;71135;-78
2023/01/10 05:10:56;;;;;;;12.00;7.00;;;;;;;3.74;100.00;97387.38;106546;1258;72544;-78
2023/01/10 05:13:23;;;;;;;6.70;4.00;;;;;;;3.70;100.00;97380.75;106476;1257;61329;-78
2023/01/10 05:15:54;;;;;;;9.90;5.80;;;;;;;3.67;100.00;97385.70;106461;1254;61311;-78
2023/01/10 05:18:21;;;;;;;9.20;5.30;;;;;;;3.64;100.00;97387.48;106580;1254;74502;-78
2023/01/10 05:20:47;;;;;;;7.50;4.30;;;;;;;3.58;100.00;97390.53;106481;1257;71066;-77
2023/01/10 05:23:13;;;;;;;12.10;6.50;;;;;;;3.57;100.00;97395.82;106495;1254;59812;-78
2023/01/10 05:25:40;;;;;;;8.90;5.50;;;;;;;3.57;100.00;97402.02;106494;1257;61871;-78
2023/01/10 05:28:06;;;;;;;6.10;3.50;;;;;;;3.55;100.00;97406.20;106524;1256;59818;-76
2023/01/10 05:30:33;;;;;;;5.30;3.50;;;;;;;3.50;100.00;97413.09;106496;1254;60878;-78
2023/01/10 05:32:59;;;;;;;7.70;4.00;;;;;;;3.46;100.00;97415.89;106545;1253;59874;-76
2023/01/10 05:35:25;;;;;;;11.80;5.00;;;;;;;3.47;100.00;97418.77;106530;1254;59892;-78
2023/01/10 05:37:52;;;;;;;6.20;3.70;;;;;;;3.47;100.00;97424.46;106554;1257;61226;-76
2023/01/10 05:40:19;;;;;;;6.80;4.90;;;;;;;3.48;100.00;97431.48;106494;1257;61113;-76
2023/01/10 05:42:45;;;;;;;10.70;5.40;;;;;;;3.49;100.00;97429.05;106526;1257;61329;-76
2023/01/10 05:45:12;;;;;;;8.60;4.80;;;;;;;3.46;100.00;97436.24;106537;1254;62119;-76
2023/01/10 05:47:38;;;;;;;6.10;2.90;;;;;;;3.39;100.00;97439.37;106531;1254;59918;-78
2023/01/10 05:50:05;;;;;;;10.90;7.50;;;;;;;3.39;100.00;97440.70;106595;1255;59872;-78
2023/01/10 05:52:31;;;;;;;9.30;6.00;;;;;;;3.36;100.00;97439.65;106639;1254;59950;-77
2023/01/10 05:54:58;;;;;;;9.20;5.90;;;;;;;3.39;100.00;97446.59;106711;1254;61356;-76
2023/01/10 05:57:25;;;;;;;17.90;12.20;;;;;;;3.40;100.00;97453.56;106771;1256;61106;-78
2023/01/10 05:59:51;;;;;;;8.30;5.80;;;;;;;3.41;100.00;97452.28;106614;1256;61675;-76
2023/01/10 06:02:17;;;;;;;6.30;3.30;;;;;;;3.39;100.00;97457.63;106688;1255;59838;-79
2023/01/10 06:04:44;;;;;;;7.90;3.40;;;;;;;3.34;100.00;97459.64;106685;1256;62043;-76
2023/01/10 06:07:11;;;;;;;7.80;5.00;;;;;;;3.34;100.00;97461.74;106672;1254;60097;-76
2023/01/10 06:09:37;;;;;;;6.80;4.00;;;;;;;3.32;100.00;97469.63;106646;1254;61804;-76
2023/01/10 06:12:04;;;;;;;10.10;5.90;;;;;;;3.31;100.00;97476.48;106654;1254;61332;-78
2023/01/10 06:14:30;;;;;;;7.10;4.70;;;;;;;3.29;100.00;97484.27;106653;1258;62101;-78
2023/01/10 06:16:57;;;;;;;9.60;4.90;;;;;;;3.29;100.00;97488.07;106620;1257;59879;-76
2023/01/10 06:19:23;;;;;;;9.30;6.20;;;;;;;3.28;100.00;97489.30;106616;1254;59913;-76
2023/01/10 06:21:49;;;;;;;7.60;4.90;;;;;;;3.29;100.00;97489.80;106637;1254;59993;-76
2023/01/10 06:24:16;;;;;;;9.60;7.40;;;;;;;3.31;100.00;97489.10;106685;1254;62107;-76
2023/01/10 06:26:43;;;;;;;10.70;8.60;;;;;;;3.25;100.00;97487.64;106604;1256;59848;-78
2023/01/10 06:29:09;;;;;;;11.40;8.90;;;;;;;3.29;100.00;97489.40;106644;1257;61304;-78
2023/01/10 06:31:35;;;;;;;11.30;9.20;;;;;;;3.29;100.00;97493.70;106571;1254;60082;-76
2023/01/10 06:34:02;;;;;;;9.30;5.00;;;;;;;3.28;100.00;97502.52;106624;1254;61996;-76
2023/01/10 06:36:28;;;;;;;6.30;4.40;;;;;;;3.23;100.00;97509.03;106606;1252;61142;-80
2023/01/10 06:38:55;;;;;;;13.10;8.80;;;;;;;3.18;100.00;97511.27;106614;1254;60021;-78
2023/01/10 06:41:21;;;;;;;12.70;7.90;;;;;;;3.13;100.00;97514.77;106556;1254;60999;-75
2023/01/10 06:43:48;;;;;;;9.80;7.10;;;;;;;3.08;100.00;97512.29;106691;1256;61438;-76
2023/01/10 06:46:16;;;;;;;8.10;3.80;;;;;;;3.04;100.00;97516.02;106918;1254;60861;-78
2023/01/10 06:48:44;;;;;;;6.20;3.80;;;;;;;3.08;100.00;97522.72;106741;1254;71897;-78
2023/01/10 06:51:14;;;;;;;5.10;2.90;;;;;;;3.07;100.00;97523.06;106597;1252;59870;-75
2023/01/10 06:53:41;;;;;;;5.10;4.00;;;;;;;3.01;100.00;97524.86;106842;1254;59791;-76
2023/01/10 06:56:08;;;;;;;4.80;3.30;;;;;;;3.01;100.00;97527.64;106763;1254;74518;-77
2023/01/10 06:58:37;;;;;;;8.00;4.80;;;;;;;3.03;100.00;97531.63;106681;1255;71078;-78
2023/01/10 07:01:11;;;;;;;8.00;4.00;;;;;;;2.98;100.00;97537.27;106603;1254;180044;-76
2023/01/10 07:03:39;;;;;;;9.90;5.60;;;;;;;3.00;100.00;97541.08;107324;1254;61218;-76
2023/01/10 07:06:09;;;;;;;13.30;6.80;;;;;;;3.05;100.00;97547.40;106758;1253;61235;-76
2023/01/10 07:08:43;;;;;;;28.50;20.30;;;;;;;3.07;100.00;97552.10;106727;1254;74586;-79
2023/01/10 07:11:10;;;;;;;13.40;8.90;;;;;;;3.01;100.00;97557.10;107283;1254;70555;-76
2023/01/10 07:13:37;;;;;;;8.60;4.90;;;;;;;2.98;100.00;97559.27;106944;1254;71372;-78
2023/01/10 07:16:05;;;;;;;10.30;7.10;;;;;;;2.95;100.00;97564.16;106737;1254;62086;-75
2023/01/10 07:18:33;;;;;;;13.00;8.00;;;;;;;2.97;100.00;97561.30;107122;1253;61872;-77
2023/01/10 07:20:59;;;;;;;9.70;5.80;;;;;;;2.99;100.00;97565.61;106707;1255;73415;-78
2023/01/10 07:23:26;;;;;;;8.90;6.50;;;;;;;3.00;100.00;97568.90;107758;1253;60466;-78
2023/01/10 07:25:52;;;;;;;13.40;6.60;;;;;;;2.99;100.00;97570.59;108455;1256;71633;-78
2023/01/10 07:28:19;;;;;;;10.40;8.00;;;;;;;3.00;100.00;97576.13;107523;1253;59761;-76
2023/01/10 07:30:45;;;;;;;9.10;5.20;;;;;;;3.00;100.00;97576.56;108280;1253;59770;-78
2023/01/10 07:33:12;;;;;;;9.30;5.90;;;;;;;3.05;100.00;97576.15;108534;1254;61683;-78
2023/01/10 07:35:38;;;;;;;6.20;4.00;;;;;;;3.03;100.00;97572.54;108766;1253;59206;-76
2023/01/10 07:38:05;;;;;;;6.10;3.60;;;;;;;2.94;100.00;97577.36;107549;1254;61288;-78
2023/01/10 07:40:32;;;;;;;7.50;4.00;;;;;;;2.99;100.00;97584.63;106879;1254;61989;-79
2023/01/10 07:42:58;;;;;;;6.10;3.60;;;;;;;2.97;100.00;97591.30;107527;1254;61109;-76
2023/01/10 07:45:28;;;;;;;4.10;2.60;;;;;;;2.90;100.00;97590.67;107503;1253;73409;-78
2023/01/10 07:47:58;;;;;;;6.40;3.20;;;;;;;2.91;100.00;97591.61;108331;1254;70652;-79
2023/01/10 07:50:26;;;;;;;7.60;4.00;;;;;;;2.91;100.00;97589.14;107576;1254;70735;-78
2023/01/10 07:52:52;;;;;;;9.00;6.10;;;;;;;2.97;100.00;97591.33;107688;1254;59747;-76
2023/01/10 07:55:19;;;;;;;9.40;5.80;;;;;;;3.02;100.00;97598.55;108798;1254;61058;-78
2023/01/10 07:57:45;;;;;;;14.50;7.90;;;;;;;3.02;100.00;97607.75;107395;1253;75083;-78
2023/01/10 08:00:13;;;;;;;13.40;7.60;;;;;;;3.04;100.00;97613.08;106658;1254;69913;-78
2023/01/10 08:02:39;;;;;;;7.00;4.70;;;;;;;3.09;100.00;97617.67;107153;1254;72466;-78
2023/01/10 08:05:06;;;;;;;6.50;3.60;;;;;;;3.10;100.00;97616.79;108045;1252;59870;-76
2023/01/10 08:07:32;;;;;;;9.00;5.30;;;;;;;3.09;100.00;97619.71;107350;1254;60968;-78
2023/01/10 08:09:59;;;;;;;14.20;8.70;;;;;;;3.12;100.00;97621.89;106953;1254;61168;-76
2023/01/10 08:12:25;;;;;;;14.60;10.50;;;;;;;3.09;100.00;97626.52;107085;1254;61177;-78
2023/01/10 08:14:53;;;;;;;8.70;4.30;;;;;;;3.06;100.00;97624.30;108363;1253;60902;-76
2023/01/10 08:17:20;;;;;;;9.30;5.20;;;;;;;3.06;100.00;97621.63;108471;1252;61010;-78
2023/01/10 08:19:49;;;;;;;10.00;5.70;;;;;;;3.09;100.00;97623.84;108605;1254;61375;-78
2023/01/10 08:22:16;;;;;;;31.40;16.90;;;;;;;3.13;100.00;97622.77;108010;1254;74633;-76
2023/01/10 08:24:42;;;;;;;25.80;19.60;;;;;;;3.15;100.00;97632.64;108651;1253;60552;-76
2023/01/10 08:27:09;;;;;;;24.80;18.00;;;;;;;3.14;100.00;97640.29;108566;1253;59824;-78
2023/01/10 08:29:36;;;;;;;34.50;24.30;;;;;;;3.17;100.00;97644.20;107454;1255;59783;-76
2023/01/10 08:32:02;;;;;;;19.30;14.50;;;;;;;3.21;100.00;97658.35;107034;1254;62029;-78
2023/01/10 08:34:29;;;;;;;57.70;35.90;;;;;;;3.23;100.00;97661.66;108078;1254;61079;-76
2023/01/10 08:36:55;;;;;;;128.50;84.30;;;;;;;3.25;100.00;97673.42;107459;1253;71188;-76
2023/01/10 08:39:25;;;;;;;31.60;21.50;;;;;;;3.28;100.00;97672.35;106800;1254;71360;-76
2023/01/10 08:41:51;;;;;;;18.90;11.10;;;;;;;3.32;100.00;97672.37;106803;1254;61999;-78
2023/01/10 08:44:18;;;;;;;18.20;11.80;;;;;;;3.33;100.00;97671.00;108155;1254;59241;-76
2023/01/10 08:46:45;;;;;;;15.50;8.50;;;;;;;3.33;100.00;97669.77;107007;1254;74605;-78
2023/01/10 08:49:12;;;;;;;14.90;8.20;;;;;;;3.34;100.00;97682.27;107009;1253;70201;-79
2023/01/10 08:51:38;;;;;;;35.30;25.50;;;;;;;3.27;100.00;97683.69;107181;1253;72570;-76
2023/01/10 08:54:05;;;;;;;15.80;10.00;;;;;;;3.26;100.00;97688.61;107165;1254;60999;-76
2023/01/10 08:56:35;;;;;;;14.30;9.60;;;;;;;3.25;100.00;97694.80;107103;1254;59917;-78
2023/01/10 08:59:01;;;;;;;17.00;9.10;;;;;;;3.19;100.00;97701.81;107281;1253;73490;-76
2023/01/10 09:01:28;;;;;;;18.00;10.60;;;;;;;3.17;100.00;97706.59;107028;1254;70151;-76
2023/01/10 09:03:54;;;;;;;19.80;11.40;;;;;;;3.13;100.00;97708.11;108189;1254;59696;-76
2023/01/10 09:06:21;;;;;;;27.60;17.00;;;;;;;3.16;100.00;97714.77;107459;1253;59811;-78
2023/01/10 09:08:47;;;;;;;25.90;16.60;;;;;;;3.17;100.00;97715.38;107107;1253;60839;-80
2023/01/10 09:11:14;;;;;;;20.60;12.70;;;;;;;3.18;100.00;97718.19;106800;1257;61461;-78
2023/01/10 09:13:41;;;;;;;20.00;12.40;;;;;;;3.20;100.00;97723.41;107829;1253;61215;-80
2023/01/10 09:16:07;;;;;;;19.60;10.70;;;;;;;3.18;100.00;97727.77;107551;1253;72591;-76
2023/01/10 09:18:34;;;;;;;12.70;7.80;;;;;;;3.19;100.00;97731.80;107861;1252;61976;-76
2023/01/10 09:21:02;;;;;;;13.60;8.50;;;;;;;3.18;100.00;97734.58;107274;1254;62028;-79
2023/01/10 09:23:28;;;;;;;18.40;12.20;;;;;;;3.17;100.00;97731.92;107014;1253;73502;-76
2023/01/10 09:25:56;;;;;;;22.50;15.10;;;;;;;3.19;100.00;97740.26;107622;1253;59728;-76
2023/01/10 09:28:23;;;;;;;29.40;18.20;;;;;;;3.14;100.00;97740.10;107510;1253;72551;-76
2023/01/10 09:30:49;;;;;;;27.00;14.40;;;;;;;3.09;100.00;97751.11;106721;1254;61875;-76
2023/01/10 09:33:16;;;;;;;35.00;20.10;;;;;;;3.07;100.00;97756.50;107842;1253;59757;-76
2023/01/10 09:35:43;;;;;;;24.80;16.30;;;;;;;3.05;100.00;97760.87;107883;1253;61220;-76
2023/01/10 09:38:11;;;;;;;23.80;12.60;;;;;;;3.02;100.00;97763.45;107383;1253;70914;-79
2023/01/10 09:40:55;;;;;;;24.20;13.70;;;;;;;3.04;100.00;97760.85;107146;1254;72664;-76
2023/01/10 09:43:56;;;;;;;22.10;13.00;;;;;;;3.06;100.00;97761.06;107823;1253;59074;-79
2023/01/10 09:46:44;;;;;;;21.20;11.50;;;;;;;3.10;100.00;97763.01;107761;1253;61350;-79
2023/01/10 09:49:20;;;;;;;18.70;11.70;;;;;;;3.09;100.00;97769.11;106985;1254;73392;-79
2023/01/10 09:51:50;;;;;;;19.50;10.40;;;;;;;3.12;100.00;97765.61;107059;1253;73046;-77
2023/01/10 09:54:31;;;;;;;21.00;12.50;;;;;;;3.08;100.00;97767.46;108126;1254;71080;-79
2023/01/10 09:56:59;;;;;;;26.40;15.20;;;;;;;3.07;100.00;97772.36;107764;1253;59512;-79
2023/01/10 09:59:35;;;;;;;21.30;11.50;;;;;;;3.04;100.00;97776.70;109046;1252;59497;-79
2023/01/10 10:02:27;;;;;;;37.30;16.80;;;;;;;3.02;100.00;97778.48;108634;1253;73001;-79
2023/01/10 10:05:14;;;;;;;34.10;16.20;;;;;;;3.04;100.00;97782.05;109059;1254;69518;-76
2023/01/10 10:07:40;;;;;;;15.90;9.00;;;;;;;3.09;100.00;97784.41;107817;1253;72570;-77
2023/01/10 10:10:31;;;;;;;31.00;15.50;;;;;;;3.10;100.00;97790.39;106957;1253;60869;-76
2023/01/10 10:13:28;;;;;;;15.60;9.00;;;;;;;3.09;100.00;97792.51;107004;1253;61212;-76
2023/01/10 10:16:12;;;;;;;81.00;28.70;;;;;;;3.09;100.00;97798.34;106950;1253;74544;-79
2023/01/10 10:19:04;;;;;;;26.50;14.20;;;;;;;3.09;100.00;97794.05;106674;1254;69798;-76
2023/01/10 10:21:52;;;;;;;43.40;17.60;;;;;;;3.11;100.00;97796.06;107087;1253;72616;-79
2023/01/10 10:24:41;;;;;;;32.10;17.60;;;;;;;3.13;100.00;97799.31;108363;1253;59741;-78
2023/01/10 10:27:20;;;;;;;37.40;21.50;;;;;;;3.16;100.00;97799.25;108021;1253;60839;-79
2023/01/10 10:30:11;;;;;;;74.20;34.50;;;;;;;3.14;100.00;97797.52;108068;1253;74557;-76
2023/01/10 10:32:43;;;;;;;49.40;25.10;;;;;;;3.14;100.00;97803.89;106889;1253;70029;-76
2023/01/10 10:35:17;;;;;;;27.00;15.10;;;;;;;3.17;100.00;97806.79;107831;1253;71535;-79
2023/01/10 10:37:53;;;;;;;22.40;10.30;;;;;;;3.13;100.00;97814.27;109257;1253;59184;-76
2023/01/10 10:40:21;;;;;;;27.50;14.50;;;;;;;3.15;100.00;97818.84;109221;1253;60228;-76
2023/01/10 10:42:50;;;;;;;32.70;17.00;;;;;;;3.09;100.00;97825.87;109282;1252;74543;-76
2023/01/10 10:45:40;;;;;;;33.90;17.60;;;;;;;3.08;100.00;97825.31;109189;1253;72226;-76
2023/01/10 10:48:23;;;;;;;28.80;15.90;;;;;;;3.05;100.00;97825.88;108745;1252;72571;-76
2023/01/10 10:50:59;;;;;;;20.50;11.80;;;;;;;3.01;100.00;97820.35;107764;1252;60051;-79
2023/01/10 10:53:25;;;;;;;20.60;11.80;;;;;;;3.05;100.00;97816.02;107800;1253;59087;-79
2023/01/10 10:55:52;;;;;;;40.50;21.50;;;;;;;3.07;100.00;97823.39;107820;1252;73429;-79
2023/01/10 10:58:18;;;;;;;27.60;16.60;;;;;;;3.07;100.00;97827.56;107713;1253;59923;-76
2023/01/10 11:00:46;;;;;;;43.90;21.40;;;;;;;3.08;100.00;97828.83;106615;1253;61372;-76
2023/01/10 11:03:24;;;;;;;60.60;33.50;;;;;;;3.08;100.00;97827.14;107332;1257;61840;-76
2023/01/10 11:05:51;;;;;;;41.60;24.00;;;;;;;3.07;100.00;97835.88;107550;1252;59817;-79
2023/01/10 11:08:18;;;;;;;63.10;30.30;;;;;;;3.05;100.00;97848.26;107449;1255;73408;-76
2023/01/10 11:10:47;;;;;;;37.20;18.80;;;;;;;3.05;100.00;97862.55;107046;1256;70313;-80
2023/01/10 11:13:16;;;;;;;27.10;16.50;;;;;;;3.05;100.00;97872.61;107724;1253;71280;-79
2023/01/10 11:15:45;;;;;;;34.50;17.80;;;;;;;3.07;100.00;97877.84;107651;1252;59100;-76
2023/01/10 11:18:13;;;;;;;24.40;13.20;;;;;;;3.05;100.00;97877.64;107640;1252;60917;-76
2023/01/10 11:21:03;;;;;;;27.50;13.30;;;;;;;3.04;100.00;97879.39;106968;1253;75854;-76
2023/01/10 11:23:39;;;;;;;19.20;11.10;;;;;;;2.92;100.00;97883.36;107750;1253;69943;-79
2023/01/10 11:26:07;;;;;;;26.50;16.90;;;;;;;2.86;100.00;97882.85;107594;1254;71506;-76
2023/01/10 11:28:34;;;;;;;30.00;16.30;;;;;;;2.81;100.00;97886.42;107278;1253;60299;-79
2023/01/10 11:31:00;;;;;;;36.30;20.20;;;;;;;2.77;100.00;97887.90;107140;1253;61343;-79
2023/01/10 11:33:30;;;;;;;59.30;30.10;;;;;;;2.76;100.00;97888.56;107809;1253;61185;-76